createdAt,value
2022-12-20T00:00:04.035Z,33.95
2022-12-20T00:02:08.962Z,33.84
2022-12-20T00:04:13.547Z,33.99
2022-12-20T00:06:17.967Z,33.85
2022-12-20T00:08:22.367Z,33.78
2022-12-20T00:10:26.857Z,33.84
2022-12-20T00:12:31.256Z,33.88
2022-12-20T00:14:35.647Z,33.74
2022-12-20T00:16:40.129Z,33.75
2022-12-20T00:18:44.660Z,33.86
2022-12-20T00:20:49.058Z,33.72
2022-12-20T00:22:53.452Z,33.72
2022-12-20T00:24:57.839Z,33.51
2022-12-20T00:27:02.231Z,33.58
2022-12-20T00:29:06.653Z,33.69
2022-12-20T00:31:11.368Z,33.59
2022-12-20T00:33:15.809Z,33.7
2022-12-20T00:35:20.343Z,33.74
2022-12-20T00:37:24.741Z,33.64
2022-12-20T00:39:29.177Z,33.87
2022-12-20T00:41:33.671Z,33.66
2022-12-20T00:43:38.048Z,33.93
2022-12-20T00:45:42.489Z,33.83
2022-12-20T00:47:46.896Z,33.51
2022-12-20T00:49:51.435Z,33.53
2022-12-20T00:51:55.849Z,33.56
2022-12-20T00:54:00.346Z,33.61
2022-12-20T00:56:04.839Z,33.4
2022-12-20T00:58:09.238Z,33.51
2022-12-20T01:00:13.706Z,33.33
2022-12-20T01:02:19.013Z,33.59
2022-12-20T01:04:23.537Z,33.58
2022-12-20T01:06:28.004Z,33.7
2022-12-20T01:08:32.403Z,33.59
2022-12-20T01:10:36.799Z,33.66
2022-12-20T01:12:41.205Z,33.52
2022-12-20T01:14:45.597Z,33.39
2022-12-20T01:16:50.260Z,33.46
2022-12-20T01:18:54.717Z,33.46
2022-12-20T01:20:59.124Z,33.34
2022-12-20T01:23:03.887Z,33.49
2022-12-20T01:25:08.258Z,33.13
2022-12-20T01:27:12.720Z,33.12
2022-12-20T01:29:17.110Z,33.34
2022-12-20T01:31:21.751Z,33.21
2022-12-20T01:33:26.253Z,33.38
2022-12-20T01:35:30.610Z,33.15
2022-12-20T01:37:34.980Z,32.96
2022-12-20T01:39:39.372Z,32.89
2022-12-20T01:41:43.851Z,32.96
2022-12-20T01:43:48.320Z,33.12
2022-12-20T01:45:53.065Z,33.09
2022-12-20T01:47:57.474Z,33.28
2022-12-20T01:50:01.929Z,33.34
2022-12-20T01:52:06.381Z,32.97
2022-12-20T01:54:10.868Z,32.99
2022-12-20T01:56:15.279Z,32.78
2022-12-20T01:58:19.660Z,33.08
2022-12-20T02:00:24.109Z,32.68
2022-12-20T02:02:28.919Z,32.76
2022-12-20T02:04:33.379Z,32.8
2022-12-20T02:06:37.769Z,32.67
2022-12-20T02:08:42.176Z,32.5
2022-12-20T02:10:46.604Z,32.52
2022-12-20T02:12:50.988Z,33.04
2022-12-20T02:14:55.384Z,32.41
2022-12-20T02:17:00.089Z,32.41
2022-12-20T02:19:04.538Z,32.75
2022-12-20T02:21:08.920Z,32.67
2022-12-20T02:23:13.315Z,32.73
2022-12-20T02:25:17.708Z,32.54
2022-12-20T02:27:22.144Z,32.54
2022-12-20T02:29:27.988Z,32.68
2022-12-20T02:31:32.592Z,32.44
2022-12-20T02:33:37.013Z,32.75
2022-12-20T02:35:41.445Z,32.79
2022-12-20T02:37:45.793Z,32.99
2022-12-20T02:39:50.224Z,32.85
2022-12-20T02:41:54.632Z,32.69
2022-12-20T02:43:58.982Z,32.79
2022-12-20T02:46:03.654Z,32.37
2022-12-20T02:48:08.082Z,32.6
2022-12-20T02:50:12.436Z,32.53
2022-12-20T02:52:16.799Z,32.67
2022-12-20T02:54:21.226Z,32.78
2022-12-20T02:56:25.636Z,32.56
2022-12-20T02:58:30.047Z,32.53
2022-12-20T03:00:34.538Z,32.71
2022-12-20T03:02:39.640Z,32.53
2022-12-20T03:04:44.124Z,32.67
2022-12-20T03:06:48.498Z,32.72
2022-12-20T03:08:52.955Z,32.57
2022-12-20T03:10:57.426Z,32.77
2022-12-20T03:13:01.898Z,32.75
2022-12-20T03:15:06.354Z,32.51
2022-12-20T03:17:11.088Z,32.89
2022-12-20T03:19:15.523Z,32.93
2022-12-20T03:21:19.880Z,32.84
2022-12-20T03:23:24.287Z,32.81
2022-12-20T03:25:28.691Z,32.83
2022-12-20T03:27:33.075Z,32.72
2022-12-20T03:29:37.484Z,32.87
2022-12-20T03:31:41.893Z,32.71
2022-12-20T03:33:46.301Z,32.81
2022-12-20T03:35:50.655Z,32.83
2022-12-20T03:37:55.015Z,32.54
2022-12-20T03:39:59.370Z,32.82
2022-12-20T03:42:03.755Z,32.65
2022-12-20T03:44:08.410Z,32.77
2022-12-20T03:46:13.065Z,32.69
2022-12-20T03:48:17.493Z,32.59
2022-12-20T03:50:21.893Z,32.75
2022-12-20T03:52:26.380Z,32.72
2022-12-20T03:54:30.824Z,32.79
2022-12-20T03:56:35.240Z,32.72
2022-12-20T03:58:39.659Z,32.63
2022-12-20T04:00:44.036Z,32.67
2022-12-20T04:02:49.374Z,32.77
2022-12-20T04:04:54.020Z,32.78
2022-12-20T04:06:58.423Z,32.77
2022-12-20T04:09:02.865Z,32.78
2022-12-20T04:11:07.280Z,32.65
2022-12-20T04:13:11.668Z,32.8
2022-12-20T04:15:16.141Z,32.71
2022-12-20T04:17:20.612Z,32.76
2022-12-20T04:19:24.966Z,32.68
2022-12-20T04:21:29.385Z,32.77
2022-12-20T04:23:33.769Z,32.94
2022-12-20T04:25:38.132Z,32.98
2022-12-20T04:27:42.484Z,32.97
2022-12-20T04:29:47.005Z,32.87
2022-12-20T04:31:51.664Z,32.6
2022-12-20T04:33:56.305Z,32.86
2022-12-20T04:36:00.687Z,32.82
2022-12-20T04:38:05.053Z,32.78
2022-12-20T04:40:09.405Z,32.78
2022-12-20T04:42:13.775Z,32.77
2022-12-20T04:44:18.169Z,32.69
2022-12-20T04:46:22.805Z,32.61
2022-12-20T04:49:00.475Z,32.69
2022-12-20T04:51:05.018Z,32.67
2022-12-20T04:53:09.390Z,32.76
2022-12-20T04:55:13.869Z,32.64
2022-12-20T04:57:18.361Z,32.76
2022-12-20T04:59:22.786Z,32.83
2022-12-20T05:01:28.027Z,32.81
2022-12-20T05:03:32.848Z,32.56
2022-12-20T05:05:37.347Z,32.69
2022-12-20T05:07:41.824Z,32.68
2022-12-20T05:09:46.248Z,32.78
2022-12-20T05:11:50.641Z,32.81
2022-12-20T05:13:54.987Z,32.89
2022-12-20T05:15:59.543Z,32.92
2022-12-20T05:18:04.012Z,32.81
2022-12-20T05:20:08.423Z,32.82
2022-12-20T05:22:12.829Z,32.9
2022-12-20T05:24:17.209Z,32.91
2022-12-20T05:26:21.682Z,32.89
2022-12-20T05:28:26.065Z,32.94
2022-12-20T05:30:30.454Z,33.12
2022-12-20T05:32:34.901Z,33.01
2022-12-20T05:34:39.289Z,32.81
2022-12-20T05:36:43.806Z,33
2022-12-20T05:38:48.211Z,33
2022-12-20T05:40:52.573Z,32.88
2022-12-20T05:42:57.007Z,32.84
2022-12-20T05:45:01.452Z,32.89
2022-12-20T05:47:06.112Z,33.06
2022-12-20T05:49:10.607Z,32.97
2022-12-20T05:51:14.960Z,33.02
2022-12-20T05:53:19.331Z,33.04
2022-12-20T05:55:23.823Z,33.04
2022-12-20T05:57:30.423Z,33.11
2022-12-20T05:59:34.804Z,33.04
2022-12-20T06:01:39.577Z,32.93
2022-12-20T06:03:44.642Z,32.94
2022-12-20T06:05:49.227Z,33.2
2022-12-20T06:07:53.792Z,33.06
2022-12-20T06:09:58.200Z,33.1
2022-12-20T06:12:02.609Z,33.17
2022-12-20T06:14:07.010Z,32.99
2022-12-20T06:16:11.603Z,33.29
2022-12-20T06:18:15.990Z,33.36
2022-12-20T06:20:20.405Z,33.37
2022-12-20T06:22:24.774Z,33.4
2022-12-20T06:24:29.171Z,33.36
2022-12-20T06:26:33.539Z,33.38
2022-12-20T06:28:37.903Z,33.21
2022-12-20T06:30:42.435Z,32.81
2022-12-20T06:32:46.843Z,33.24
2022-12-20T06:34:51.260Z,33.3
2022-12-20T06:36:55.642Z,33.47
2022-12-20T06:39:09.355Z,33.57
2022-12-20T06:41:14.094Z,32.91
2022-12-20T06:43:18.519Z,32.81
2022-12-20T06:45:22.877Z,32.96
2022-12-20T06:47:27.375Z,32.84
2022-12-20T06:49:31.754Z,32.92
2022-12-20T06:51:36.135Z,32.81
2022-12-20T06:53:40.520Z,32.82
2022-12-20T06:55:44.892Z,28.82
2022-12-20T06:57:49.482Z,32.28
2022-12-20T06:59:53.908Z,32.71
2022-12-20T07:01:59.283Z,32.94
2022-12-20T07:04:04.006Z,32.85
2022-12-20T07:06:08.525Z,32.43
2022-12-20T07:08:12.993Z,32.71
2022-12-20T07:10:17.404Z,32.67
2022-12-20T07:12:21.816Z,32.76
2022-12-20T07:14:28.051Z,32.69
2022-12-20T07:16:33.558Z,32.75
2022-12-20T07:18:38.026Z,32.04
2022-12-20T07:20:42.398Z,32.62
2022-12-20T07:22:46.766Z,32.62
2022-12-20T07:24:51.163Z,32.75
2022-12-20T07:26:55.656Z,32.66
2022-12-20T07:29:00.019Z,32.47
2022-12-20T07:31:04.519Z,32.42
2022-12-20T07:33:08.917Z,32.49
2022-12-20T07:35:13.353Z,32.43
2022-12-20T07:37:17.775Z,32.5
2022-12-20T07:39:22.160Z,32.57
2022-12-20T07:41:26.937Z,32.55
2022-12-20T07:43:31.389Z,32.64
2022-12-20T07:45:35.965Z,32.74
2022-12-20T07:47:41.451Z,32.73
2022-12-20T07:49:45.752Z,32.78
2022-12-20T07:51:50.130Z,32.73
2022-12-20T07:53:54.699Z,32.61
2022-12-20T07:55:59.215Z,32.59
2022-12-20T07:58:03.638Z,32.71
2022-12-20T08:00:08.049Z,32.65
2022-12-20T08:02:13.238Z,32.85
2022-12-20T08:04:17.842Z,32.88
2022-12-20T08:06:22.272Z,32.84
2022-12-20T08:08:26.672Z,33.04
2022-12-20T08:10:31.133Z,33.14
2022-12-20T08:12:35.513Z,33.07
2022-12-20T08:14:39.922Z,33.14
2022-12-20T08:16:44.624Z,33.18
2022-12-20T08:18:49.040Z,33.15
2022-12-20T08:20:53.431Z,33.23
2022-12-20T08:22:57.837Z,33.12
2022-12-20T08:25:02.408Z,33.31
2022-12-20T08:27:06.825Z,33.32
2022-12-20T08:29:11.341Z,33.37
2022-12-20T08:31:16.082Z,33.3
2022-12-20T08:33:20.583Z,33.6
2022-12-20T08:35:25.001Z,33.48
2022-12-20T08:37:29.407Z,33.77
2022-12-20T08:39:33.790Z,33.63
2022-12-20T08:41:38.133Z,33.48
2022-12-20T08:43:42.678Z,33.69
2022-12-20T08:45:47.157Z,33.72
2022-12-20T08:47:51.580Z,33.63
2022-12-20T08:49:56.053Z,33.67
2022-12-20T08:52:00.452Z,33.7
2022-12-20T08:54:04.955Z,33.79
2022-12-20T08:56:09.377Z,33.81
2022-12-20T08:58:13.738Z,33.55
2022-12-20T09:00:18.198Z,33.8
2022-12-20T09:02:23.457Z,33.84
2022-12-20T09:04:28.061Z,33.83
2022-12-20T09:06:32.419Z,33.9
2022-12-20T09:08:36.786Z,33.94
2022-12-20T09:10:41.183Z,33.87
2022-12-20T09:12:45.544Z,33.91
2022-12-20T09:14:49.950Z,33.95
2022-12-20T09:16:54.341Z,33.77
2022-12-20T09:19:07.650Z,33.79
2022-12-20T09:21:12.064Z,33.86
2022-12-20T09:23:16.427Z,33.9
2022-12-20T09:25:20.809Z,33.92
2022-12-20T09:27:25.326Z,33.89
2022-12-20T09:29:37.328Z,34.04
2022-12-20T09:31:41.988Z,33.98
2022-12-20T09:33:46.686Z,34.02
2022-12-20T09:35:51.589Z,33.91
2022-12-20T09:37:55.977Z,33.84
2022-12-20T09:40:00.402Z,33.92
2022-12-20T09:42:04.968Z,34.16
2022-12-20T09:44:09.374Z,34.14
2022-12-20T09:46:13.881Z,34.19
2022-12-20T09:48:18.318Z,34.17
2022-12-20T09:50:22.765Z,34.24
2022-12-20T09:52:27.215Z,34.23
2022-12-20T09:54:31.614Z,34.39
2022-12-20T09:56:36.051Z,34.35
2022-12-20T09:58:40.466Z,34.3
2022-12-20T10:00:54.839Z,34.51
2022-12-20T10:03:12.312Z,34.48
2022-12-20T10:05:17.602Z,34.52
2022-12-20T10:07:22.092Z,34.36
2022-12-20T10:09:26.484Z,34.39
2022-12-20T10:11:50.654Z,34.32
2022-12-20T10:13:55.294Z,34.38
2022-12-20T10:15:59.867Z,34.25
2022-12-20T10:18:04.247Z,34.46
2022-12-20T10:20:08.797Z,34.51
2022-12-20T10:22:13.200Z,34.63
2022-12-20T10:24:17.595Z,34.58
2022-12-20T10:26:23.819Z,34.62
2022-12-20T10:28:28.290Z,34.53
2022-12-20T10:30:32.825Z,34.56
2022-12-20T10:32:37.230Z,34.6
2022-12-20T10:34:49.767Z,34.55
2022-12-20T10:36:54.166Z,34.51
2022-12-20T10:38:58.612Z,34.9
2022-12-20T10:41:24.541Z,34.57
2022-12-20T10:43:28.943Z,34.79
2022-12-20T10:45:38.282Z,34.88
2022-12-20T10:47:42.788Z,34.68
2022-12-20T10:49:47.208Z,34.69
2022-12-20T10:51:51.619Z,34.57
2022-12-20T10:53:56.181Z,34.54
2022-12-20T10:56:00.627Z,34.63
2022-12-20T10:58:05.236Z,34.63
2022-12-20T11:00:09.678Z,34.66
2022-12-20T11:02:14.498Z,34.72
2022-12-20T11:04:19.425Z,34.69
2022-12-20T11:06:23.859Z,34.76
2022-12-20T11:09:01.039Z,34.5
2022-12-20T11:11:05.720Z,34.42
2022-12-20T11:13:10.166Z,34.46
2022-12-20T11:15:14.595Z,34.36
2022-12-20T11:17:18.985Z,34.37
2022-12-20T11:19:23.385Z,34.37
2022-12-20T11:21:30.575Z,34.17
2022-12-20T11:23:35.095Z,34.1
2022-12-20T11:25:39.539Z,34.12
2022-12-20T11:27:44.045Z,34.13
2022-12-20T11:29:48.445Z,34.11
2022-12-20T11:31:53.188Z,34.03
2022-12-20T11:33:57.670Z,34.02
2022-12-20T11:36:02.056Z,34
2022-12-20T11:38:11.929Z,34.01
2022-12-20T11:40:16.371Z,33.98
2022-12-20T11:42:20.894Z,34.01
2022-12-20T11:44:28.851Z,34.02
2022-12-20T11:46:33.545Z,33.93
2022-12-20T11:48:38.067Z,33.96
2022-12-20T11:50:42.550Z,33.97
2022-12-20T11:52:46.965Z,33.93
2022-12-20T11:54:51.388Z,33.93
2022-12-20T11:56:55.914Z,33.85
2022-12-20T11:59:00.400Z,33.9
2022-12-20T12:01:04.888Z,33.84
2022-12-20T12:03:09.742Z,33.88
2022-12-20T12:05:14.575Z,33.85
2022-12-20T12:07:19.038Z,33.79
2022-12-20T12:09:23.419Z,33.77
2022-12-20T12:12:09.960Z,33.84
2022-12-20T12:14:14.503Z,33.78
2022-12-20T12:16:19.268Z,33.72
2022-12-20T12:18:23.724Z,33.74
2022-12-20T12:20:28.322Z,33.89
2022-12-20T12:22:32.812Z,33.83
2022-12-20T12:24:37.203Z,33.81
2022-12-20T12:26:41.715Z,33.83
2022-12-20T12:28:46.174Z,33.79
2022-12-20T12:30:50.767Z,33.89
2022-12-20T12:32:55.205Z,33.87
2022-12-20T12:34:59.742Z,33.78
2022-12-20T12:37:04.262Z,33.64
2022-12-20T12:39:08.699Z,33.69
2022-12-20T12:41:13.095Z,33.69
2022-12-20T12:43:17.508Z,33.72
2022-12-20T12:45:22.073Z,33.68
2022-12-20T12:47:26.472Z,34
2022-12-20T12:49:30.856Z,33.94
2022-12-20T12:51:35.276Z,33.82
2022-12-20T12:53:39.690Z,33.76
2022-12-20T12:55:44.122Z,33.81
2022-12-20T12:57:48.514Z,33.84
2022-12-20T12:59:53.046Z,33.78
2022-12-20T13:01:58.380Z,33.77
2022-12-20T13:04:02.835Z,33.87
2022-12-20T13:06:07.271Z,33.95
2022-12-20T13:08:11.676Z,33.92
2022-12-20T13:10:16.274Z,33.69
2022-12-20T13:12:20.768Z,34.05
2022-12-20T13:14:25.275Z,34.11
2022-12-20T13:17:17.143Z,33.19
2022-12-20T13:19:23.861Z,33.55
2022-12-20T13:21:28.289Z,33.58
2022-12-20T13:23:32.673Z,33.52
2022-12-20T13:25:38.435Z,33.5
2022-12-20T13:27:42.914Z,33.4
2022-12-20T13:29:47.358Z,33.4
2022-12-20T13:31:56.568Z,33.39
2022-12-20T13:34:01.142Z,33.75
2022-12-20T13:36:05.623Z,33.75
2022-12-20T13:38:10.136Z,33.78
2022-12-20T13:40:14.565Z,34.07
2022-12-20T13:42:19.072Z,33.78
2022-12-20T13:44:23.439Z,33.9
2022-12-20T13:46:28.240Z,33.78
2022-12-20T13:48:32.688Z,33.8
2022-12-20T13:50:37.061Z,33.71
2022-12-20T13:52:41.485Z,33.79
2022-12-20T13:54:45.943Z,34.01
2022-12-20T13:56:50.459Z,33.71
2022-12-20T13:58:54.907Z,33.52
2022-12-20T14:00:59.659Z,33.82
2022-12-20T14:03:04.764Z,33.57
2022-12-20T14:05:09.505Z,33.57
2022-12-20T14:07:13.985Z,33.57
2022-12-20T14:09:18.469Z,33.6
2022-12-20T14:11:22.922Z,33.54
2022-12-20T14:13:27.479Z,33.63
2022-12-20T14:15:32.004Z,33.58
2022-12-20T14:17:45.637Z,33.34
2022-12-20T14:19:50.006Z,33.24
2022-12-20T14:21:54.536Z,33.33
2022-12-20T14:23:59.069Z,33.34
2022-12-20T14:26:03.491Z,33.21
2022-12-20T14:28:07.975Z,33.06
2022-12-20T14:30:12.385Z,32.97
2022-12-20T14:32:16.914Z,33.05
2022-12-20T14:34:29.423Z,33.23
2022-12-20T14:36:34.334Z,32.82
2022-12-20T14:38:38.758Z,32.96
2022-12-20T14:40:43.167Z,32.93
2022-12-20T14:42:47.554Z,33.31
2022-12-20T14:44:52.094Z,33.02
2022-12-20T14:46:56.934Z,32.84
2022-12-20T14:49:01.481Z,32.89
2022-12-20T14:51:05.948Z,33.01
2022-12-20T14:53:10.352Z,32.93
2022-12-20T14:55:14.834Z,33
2022-12-20T14:57:19.268Z,32.84
2022-12-20T14:59:23.836Z,32.89
2022-12-20T15:01:28.599Z,32.81
2022-12-20T15:03:34.501Z,32.81
2022-12-20T15:05:39.054Z,33.01
2022-12-20T15:07:43.455Z,32.54
2022-12-20T15:09:47.861Z,32.98
2022-12-20T15:11:52.300Z,32.89
2022-12-20T15:13:56.915Z,32.63
2022-12-20T15:16:01.818Z,32.78
2022-12-20T15:18:07.690Z,32.71
2022-12-20T15:20:12.093Z,32.71
2022-12-20T15:22:17.255Z,32.41
2022-12-20T15:24:22.150Z,32.74
2022-12-20T15:26:26.583Z,32.46
2022-12-20T15:28:31.100Z,32.3
2022-12-20T15:30:35.824Z,32.55
2022-12-20T15:32:56.603Z,32.4
2022-12-20T15:35:01.055Z,32.02
2022-12-20T15:37:05.597Z,32.78
2022-12-20T15:39:16.088Z,32.86
2022-12-20T15:41:20.485Z,32.84
2022-12-20T15:43:24.902Z,32.58
2022-12-20T15:45:29.307Z,32.93
2022-12-20T15:47:33.702Z,32.78
2022-12-20T15:49:38.215Z,32.9
2022-12-20T15:51:42.688Z,33.17
2022-12-20T15:53:47.131Z,33.02
2022-12-20T15:55:51.550Z,33.32
2022-12-20T15:57:55.935Z,31.95
2022-12-20T16:00:05.088Z,33.35
2022-12-20T16:02:10.040Z,33.22
2022-12-20T16:04:14.922Z,31.52
2022-12-20T16:06:19.398Z,32.02
2022-12-20T16:08:23.752Z,32.12
2022-12-20T16:10:29.483Z,32.03
2022-12-20T16:12:33.868Z,32.32
2022-12-20T16:14:38.187Z,32.38
2022-12-20T16:16:42.852Z,32.38
2022-12-20T16:18:47.344Z,32.71
2022-12-20T16:20:51.791Z,32.98
2022-12-20T16:22:56.219Z,33.39
2022-12-20T16:25:00.616Z,33.29
2022-12-20T16:27:05.045Z,33.12
2022-12-20T16:29:09.479Z,33.52
2022-12-20T16:31:14.031Z,33.62
2022-12-20T16:33:18.638Z,33.77
2022-12-20T16:35:23.215Z,34.07
2022-12-20T16:37:27.632Z,33.91
2022-12-20T16:39:32.051Z,34.52
2022-12-20T16:41:36.480Z,34.33
2022-12-20T16:43:41.240Z,34.89
2022-12-20T16:45:45.781Z,35.78
2022-12-20T16:47:50.432Z,35.99
2022-12-20T16:49:55.946Z,35.91
2022-12-20T16:52:00.396Z,37.25
2022-12-20T16:54:22.536Z,36.23
2022-12-20T16:56:26.950Z,36.63
2022-12-20T16:59:23.209Z,35.2
2022-12-20T17:01:28.357Z,34.7
2022-12-20T17:03:33.182Z,34.55
2022-12-20T17:05:37.770Z,34.02
2022-12-20T17:07:43.814Z,34.07
2022-12-20T17:10:11.836Z,33.51
2022-12-20T17:12:16.353Z,33.28
2022-12-20T17:14:21.143Z,33.39
2022-12-20T17:16:25.952Z,32.86
2022-12-20T17:18:30.407Z,32.18
2022-12-20T17:20:38.940Z,32.4
2022-12-20T17:22:58.015Z,31.89
2022-12-20T17:25:02.454Z,30.93
2022-12-20T17:27:06.851Z,31.96
2022-12-20T17:29:11.228Z,30.94
2022-12-20T17:31:15.902Z,31.03
2022-12-20T17:33:20.376Z,31
2022-12-20T17:35:24.888Z,31.52
2022-12-20T17:37:29.400Z,32.2
2022-12-20T17:39:33.850Z,32.54
2022-12-20T17:41:38.248Z,33.04
2022-12-20T17:43:42.649Z,32.77
2022-12-20T17:45:47.403Z,32.84
2022-12-20T17:47:51.979Z,33.05
2022-12-20T17:49:56.384Z,33.29
2022-12-20T17:52:00.783Z,32.81
2022-12-20T17:54:05.236Z,33.16
2022-12-20T17:56:09.634Z,33.16
2022-12-20T17:58:14.259Z,32.97
2022-12-20T18:00:18.733Z,33.14
2022-12-20T18:02:24.307Z,33.11
2022-12-20T18:04:29.520Z,33.26
2022-12-20T18:06:34.069Z,33.66
2022-12-20T18:08:38.448Z,33.38
2022-12-20T18:10:43.045Z,33.52
2022-12-20T18:12:47.621Z,33.73
2022-12-20T18:14:52.230Z,33.77
2022-12-20T18:16:56.997Z,33.69
2022-12-20T18:19:01.412Z,34.05
2022-12-20T18:21:05.810Z,34.02
2022-12-20T18:23:10.274Z,34.22
2022-12-20T18:25:15.036Z,34.06
2022-12-20T18:27:21.502Z,33.64
2022-12-20T18:29:28.152Z,34.24
2022-12-20T18:31:32.865Z,33.71
2022-12-20T18:33:37.309Z,33.9
2022-12-20T18:35:41.832Z,33.95
2022-12-20T18:37:46.287Z,33.77
2022-12-20T18:39:50.770Z,33.51
2022-12-20T18:41:55.333Z,33.5
2022-12-20T18:43:59.909Z,31.85
2022-12-20T18:46:04.752Z,33.35
2022-12-20T18:48:09.271Z,33.58
2022-12-20T18:50:13.880Z,34.09
2022-12-20T18:52:18.415Z,34.14
2022-12-20T18:54:22.942Z,34.11
2022-12-20T18:56:27.745Z,34.15
2022-12-20T18:58:38.178Z,34.35
2022-12-20T19:00:42.592Z,34.6
2022-12-20T19:02:47.599Z,34.7
2022-12-20T19:04:52.176Z,34.81
2022-12-20T19:06:56.852Z,34.81
2022-12-20T19:09:01.633Z,34.71
2022-12-20T19:11:06.110Z,33.87
2022-12-20T19:13:10.515Z,34.22
2022-12-20T19:15:15.074Z,34.17
2022-12-20T19:17:20.782Z,34.28
2022-12-20T19:19:25.291Z,34.26
2022-12-20T19:21:29.725Z,34.33
2022-12-20T19:23:34.208Z,34.78
2022-12-20T19:25:38.650Z,34.77
2022-12-20T19:27:43.106Z,34.53
2022-12-20T19:29:47.611Z,34.73
2022-12-20T19:31:52.421Z,34.19
2022-12-20T19:33:56.923Z,34.49
2022-12-20T19:36:01.426Z,34.4
2022-12-20T19:38:05.844Z,34.55
2022-12-20T19:40:10.268Z,34.31
2022-12-20T19:42:26.847Z,35.2
2022-12-20T19:44:31.319Z,35.06
2022-12-20T19:46:36.087Z,34.61
2022-12-20T19:48:40.592Z,36.08
2022-12-20T19:50:45.085Z,35.85
2022-12-20T19:52:49.650Z,34.82
2022-12-20T19:54:54.304Z,35.87
2022-12-20T19:56:58.828Z,36.37
2022-12-20T19:59:03.356Z,35.36
2022-12-20T20:01:08.156Z,35.54
2022-12-20T20:03:13.391Z,35.26
2022-12-20T20:05:18.020Z,35.37
2022-12-20T20:07:22.517Z,34.96
2022-12-20T20:09:27.178Z,34.81
2022-12-20T20:11:31.847Z,35.28
2022-12-20T20:13:36.828Z,35.06
2022-12-20T20:15:41.618Z,34.72
2022-12-20T20:17:46.218Z,35.05
2022-12-20T20:19:50.810Z,34.81
2022-12-20T20:21:55.511Z,35.22
2022-12-20T20:24:00.039Z,35.19
2022-12-20T20:26:04.629Z,35.43
2022-12-20T20:28:09.027Z,35.28
2022-12-20T20:30:13.557Z,34.93
2022-12-20T20:32:18.099Z,35.54
2022-12-20T20:34:22.781Z,34.96
2022-12-20T20:36:27.978Z,34.83
2022-12-20T20:38:32.464Z,34.7
2022-12-20T20:40:37.075Z,33.92
2022-12-20T20:42:41.523Z,33.4
2022-12-20T20:44:45.955Z,33.03
2022-12-20T20:46:50.746Z,32.9
2022-12-20T20:48:55.231Z,34.15
2022-12-20T20:50:59.722Z,33.54
2022-12-20T20:53:04.215Z,33.65
2022-12-20T20:55:08.937Z,33.79
2022-12-20T20:57:13.568Z,34.05
2022-12-20T20:59:20.381Z,33.64
2022-12-20T21:01:25.423Z,34.22
2022-12-20T21:03:30.595Z,33.41
2022-12-20T21:06:42.395Z,33.46
2022-12-20T21:08:46.963Z,33.6
2022-12-20T21:10:51.868Z,33.15
2022-12-20T21:12:56.337Z,33.51
2022-12-20T21:15:30.821Z,33.5
2022-12-20T21:17:35.292Z,32.08
2022-12-20T21:19:39.751Z,32.88
2022-12-20T21:21:44.174Z,33.11
2022-12-20T21:23:48.609Z,33.36
2022-12-20T21:25:53.036Z,33.61
2022-12-20T21:27:57.523Z,33.52
2022-12-20T21:30:02.095Z,33.07
2022-12-20T21:32:06.625Z,32.52
2022-12-20T21:34:11.018Z,32.56
2022-12-20T21:36:15.424Z,32.24
2022-12-20T21:38:19.940Z,32.34
2022-12-20T21:40:24.434Z,31.97
2022-12-20T21:42:28.856Z,31.94
2022-12-20T21:44:33.323Z,31.83
2022-12-20T21:46:38.035Z,32
2022-12-20T21:48:42.649Z,31.99
2022-12-20T21:50:47.095Z,31.66
2022-12-20T21:52:51.931Z,31.89
2022-12-20T21:54:56.383Z,31.85
2022-12-20T21:57:00.812Z,31.76
2022-12-20T21:59:05.340Z,31.79
2022-12-20T22:01:10.342Z,32.19
2022-12-20T22:03:15.541Z,31.69
2022-12-20T22:05:20.079Z,31.84
2022-12-20T22:07:24.527Z,31.77
2022-12-20T22:09:28.951Z,32.03
2022-12-20T22:11:33.345Z,31.63
2022-12-20T22:13:43.527Z,31.58
2022-12-20T22:15:48.004Z,31.75
2022-12-20T22:17:52.578Z,31.64
2022-12-20T22:19:56.973Z,31.64
2022-12-20T22:22:01.465Z,31.65
2022-12-20T22:24:05.903Z,31.54
2022-12-20T22:26:10.642Z,31.75
2022-12-20T22:28:15.034Z,31.48
2022-12-20T22:30:19.460Z,31.47
2022-12-20T22:32:23.927Z,31.49
2022-12-20T22:34:28.393Z,31.45
2022-12-20T22:36:32.899Z,31.56
2022-12-20T22:38:37.523Z,31.5
2022-12-20T22:40:41.958Z,31.52
2022-12-20T22:42:46.375Z,31.35
2022-12-20T22:44:50.759Z,31.32
2022-12-20T22:46:55.499Z,31.35
2022-12-20T22:49:00.377Z,31.31
2022-12-20T22:51:04.849Z,31.28
2022-12-20T22:53:09.305Z,31.25
2022-12-20T22:55:13.723Z,31.21
2022-12-20T22:57:18.209Z,31.2
2022-12-20T22:59:22.660Z,31.2
2022-12-20T23:01:27.805Z,31.15
2022-12-20T23:03:33.080Z,31.08
2022-12-20T23:05:37.620Z,31.17
2022-12-20T23:07:42.073Z,31.1
2022-12-20T23:09:46.539Z,31.08
2022-12-20T23:11:50.958Z,31.22
2022-12-20T23:13:55.522Z,31.15
2022-12-20T23:16:00.043Z,31.06
2022-12-20T23:18:04.533Z,31.09
2022-12-20T23:20:08.951Z,31
2022-12-20T23:22:13.453Z,31.05
2022-12-20T23:24:17.946Z,31.03
2022-12-20T23:26:22.377Z,30.98
2022-12-20T23:28:26.777Z,31.08
2022-12-20T23:30:31.191Z,30.97
2022-12-20T23:32:35.824Z,31.06
2022-12-20T23:34:40.271Z,31.08
2022-12-20T23:36:44.715Z,31.49
2022-12-20T23:38:49.137Z,31.05
2022-12-20T23:40:53.585Z,31.99
2022-12-20T23:42:58.071Z,31.08
2022-12-20T23:45:02.587Z,31.03
2022-12-20T23:47:07.064Z,31.13
2022-12-20T23:49:11.593Z,31.19
2022-12-20T23:51:16.170Z,31.32
2022-12-20T23:53:20.632Z,31.11
2022-12-20T23:55:25.131Z,31.15
2022-12-20T23:57:29.571Z,31.15
2022-12-20T23:59:34.044Z,31.27
